Time;durP1;ratioP1;P1;durP2;ratioP2;P2;SDS_P1;SDS_P2;PMS_P1;PMS_P2;Temp;Humidity;BMP_temperature;BMP_pressure;BME280_temperature;BME280_humidity;BME280_pressure;Samples;Min_cycle;Max_cycle;Signal;HPM_P1;HPM_P2
2022/09/30 00:01:35;;;;;;;12.87;8.57;;;9.30;91.70;;;;;;5006071;28;20025;-85
2022/09/30 00:04:01;;;;;;;10.60;7.40;;;9.30;91.80;;;;;;5022329;28;20464;-84
2022/09/30 00:06:29;;;;;;;10.60;6.97;;;9.30;91.90;;;;;;5038725;28;20111;-85
2022/09/30 00:08:56;;;;;;;10.73;7.03;;;9.30;92.00;;;;;;5022744;28;20063;-85
2022/09/30 00:11:30;;;;;;;14.60;7.77;;;9.30;92.40;;;;;;5056773;28;20029;-78
2022/09/30 00:13:57;;;;;;;;;;;9.30;92.20;;;;;;5038853;28;20028;-78
2022/09/30 00:16:24;;;;;;;9.83;5.87;;;9.30;92.20;;;;;;5038264;28;19905;-78
2022/09/30 00:18:50;;;;;;;9.50;5.73;;;9.30;92.10;;;;;;5038325;28;20472;-78
2022/09/30 00:21:16;;;;;;;10.30;5.73;;;9.20;92.10;;;;;;5021530;28;20075;-78
2022/09/30 00:23:43;;;;;;;8.87;5.30;;;9.20;92.20;;;;;;5005124;28;20384;-79
2022/09/30 00:26:20;;;;;;;11.73;5.70;;;9.20;92.30;;;;;;5038131;28;20111;-78
2022/09/30 00:28:50;;;;;;;8.47;5.23;;;9.20;92.40;;;;;;5038100;28;20477;-78
2022/09/30 00:31:18;;;;;;;7.63;5.00;;;9.10;92.50;;;;;;5038011;28;20039;-78
2022/09/30 00:34:05;;;;;;;9.33;5.43;;;9.10;92.80;;;;;;5021452;28;20036;-78
2022/09/30 00:36:30;;;;;;;8.20;5.00;;;9.00;92.50;;;;;;5055630;28;20022;-79
2022/09/30 00:38:55;;;;;;;10.03;5.33;;;9.00;92.50;;;;;;5021446;28;20032;-78
2022/09/30 00:41:21;;;;;;;8.60;5.63;;;8.90;92.60;;;;;;5054609;28;20607;-78
2022/09/30 00:43:52;;;;;;;8.43;5.73;;;9.00;92.70;;;;;;5037862;28;20021;-78
2022/09/30 00:46:38;;;;;;;10.10;6.17;;;9.00;92.80;;;;;;5021939;28;20107;-79
2022/09/30 00:49:18;;;;;;;9.73;5.50;;;8.90;92.90;;;;;;5037807;28;20025;-78
2022/09/30 00:51:53;;;;;;;7.80;5.07;;;8.90;93.00;;;;;;5037695;28;20017;-79
2022/09/30 00:54:23;;;;;;;9.10;5.50;;;8.90;93.10;;;;;;5037664;28;20025;-78
2022/09/30 00:56:53;;;;;;;10.00;5.40;;;9.00;93.10;;;;;;5037409;28;20048;-78
2022/09/30 00:59:26;;;;;;;8.43;5.53;;;8.80;93.10;;;;;;5037575;28;20384;-78
2022/09/30 01:01:52;;;;;;;8.23;4.97;;;8.80;93.10;;;;;;5037568;28;20088;-78
2022/09/30 01:04:21;;;;;;;13.27;6.13;;;8.80;93.50;;;;;;5021072;28;20388;-78
2022/09/30 01:06:47;;;;;;;10.47;5.23;;;8.70;93.20;;;;;;5037385;28;20425;-78
2022/09/30 01:09:13;;;;;;;21.17;5.67;;;8.70;93.30;;;;;;5037833;28;20024;-78
2022/09/30 01:11:38;;;;;;;40.00;5.93;;;8.70;93.40;;;;;;5004612;28;20029;-78
2022/09/30 01:14:09;;;;;;;19.33;5.87;;;8.60;93.50;;;;;;5020992;28;20480;-78
2022/09/30 01:16:53;;;;;;;9.10;5.30;;;8.60;93.70;;;;;;5037527;28;20380;-78
2022/09/30 01:19:32;;;;;;;;;;;8.60;93.80;;;;;;5037497;28;20037;-78
2022/09/30 01:22:25;;;;;;;11.10;5.00;;;8.50;93.80;;;;;;5055817;28;19904;-79
2022/09/30 01:25:12;;;;;;;9.83;4.63;;;8.50;93.90;;;;;;5037128;28;20032;-78
2022/09/30 01:27:59;;;;;;;9.70;4.70;;;8.50;93.90;;;;;;5037218;28;20044;-78
2022/09/30 01:31:09;;;;;;;6.60;4.53;;;8.50;94.10;;;;;;5037295;28;20036;-85
2022/09/30 01:33:34;;;;;;;10.53;4.73;;;8.50;94.20;;;;;;4975891;28;20098;-85
2022/09/30 01:36:21;;;;;;;8.03;5.13;;;8.50;94.30;;;;;;5037194;28;20029;-84
2022/09/30 01:39:05;;;;;;;8.90;4.87;;;8.50;94.40;;;;;;5037002;28;20039;-85
2022/09/30 01:41:55;;;;;;;7.13;4.47;;;8.50;94.50;;;;;;5053558;28;20120;-85
2022/09/30 01:44:42;;;;;;;9.27;5.70;;;8.50;94.60;;;;;;5036942;28;20021;-85
2022/09/30 01:47:25;;;;;;;8.20;4.83;;;8.50;94.70;;;;;;5037047;28;20029;-85
2022/09/30 01:50:15;;;;;;;7.27;5.03;;;8.50;94.70;;;;;;5037584;28;20365;-84
2022/09/30 01:53:07;;;;;;;6.80;4.50;;;8.50;94.80;;;;;;5036738;28;20534;-84
2022/09/30 01:56:05;;;;;;;7.90;5.00;;;8.40;94.90;;;;;;5037117;28;20024;-85
2022/09/30 01:58:48;;;;;;;6.73;4.50;;;8.40;95.10;;;;;;5049300;28;20134;-84
2022/09/30 02:01:34;;;;;;;7.83;4.57;;;8.40;95.20;;;;;;5036973;28;20108;-85
2022/09/30 02:04:06;;;;;;;10.10;5.47;;;8.40;95.20;;;;;;5054552;28;20028;-85
2022/09/30 02:06:36;;;;;;;7.57;4.53;;;8.40;95.20;;;;;;5064038;28;20015;-79
2022/09/30 02:09:13;;;;;;;7.30;3.83;;;8.40;95.30;;;;;;5052052;28;20005;-77
2022/09/30 02:11:41;;;;;;;8.33;4.97;;;8.40;95.40;;;;;;5049598;28;20029;-79
2022/09/30 02:14:26;;;;;;;7.67;4.80;;;8.40;95.40;;;;;;5049070;28;20395;-79
2022/09/30 02:17:01;;;;;;;7.17;4.50;;;8.40;95.40;;;;;;5042081;28;20021;-78
2022/09/30 02:19:36;;;;;;;6.93;4.60;;;8.40;95.40;;;;;;5036738;28;20025;-78
2022/09/30 02:22:20;;;;;;;6.70;4.70;;;8.40;95.40;;;;;;5054851;28;20060;-78
2022/09/30 02:24:51;;;;;;;6.85;4.53;;;8.30;95.50;;;;;;5054950;28;20129;-78
2022/09/30 02:27:27;;;;;;;7.87;5.30;;;8.30;95.50;;;;;;5036270;28;20021;-78
2022/09/30 02:29:56;;;;;;;7.93;5.47;;;8.30;95.50;;;;;;5036101;28;20132;-78
2022/09/30 02:32:29;;;;;;;7.53;4.90;;;8.20;95.60;;;;;;5035956;28;20451;-78
2022/09/30 02:35:09;;;;;;;6.47;4.00;;;8.20;95.70;;;;;;5035827;28;20024;-78
2022/09/30 02:37:47;;;;;;;6.73;4.70;;;8.20;95.70;;;;;;5035152;28;20049;-78
2022/09/30 02:40:19;;;;;;;6.33;4.10;;;8.20;95.70;;;;;;5052703;28;20078;-78
2022/09/30 02:42:45;;;;;;;6.57;4.67;;;8.10;95.80;;;;;;5052290;28;20018;-78
2022/09/30 02:45:15;;;;;;;6.90;4.20;;;8.10;96.10;;;;;;5035466;28;20029;-78
2022/09/30 02:48:10;;;;;;;6.90;3.70;;;8.10;95.90;;;;;;5052704;28;20395;-78
2022/09/30 02:50:50;;;;;;;6.90;4.27;;;8.10;95.90;;;;;;5035843;28;20097;-78
2022/09/30 02:53:25;;;;;;;6.07;4.00;;;8.10;96.00;;;;;;5052510;28;20025;-78
2022/09/30 02:56:04;;;;;;;5.93;3.70;;;8.00;96.20;;;;;;5053227;28;20032;-79
2022/09/30 02:58:35;;;;;;;8.03;4.47;;;8.10;96.10;;;;;;5052355;28;20485;-79
2022/09/30 03:01:02;;;;;;;8.50;4.20;;;8.00;96.10;;;;;;5036135;28;20111;-78
2022/09/30 03:03:34;;;;;;;5.63;3.93;;;7.90;96.10;;;;;;5035344;28;20017;-79
2022/09/30 03:06:00;;;;;;;8.40;4.77;;;8.00;96.30;;;;;;5053242;28;20021;-79
2022/09/30 03:08:25;;;;;;;8.13;4.63;;;7.90;96.30;;;;;;5051916;28;20032;-79
2022/09/30 03:10:51;;;;;;;5.73;3.90;;;8.00;96.30;;;;;;5052025;28;20063;-79
2022/09/30 03:13:27;;;;;;;7.70;4.83;;;8.10;96.50;;;;;;5035406;28;20777;-79
2022/09/30 03:16:23;;;;;;;6.73;4.40;;;7.90;96.50;;;;;;5051881;28;20032;-79
2022/09/30 03:19:07;;;;;;;6.23;4.10;;;7.90;96.50;;;;;;5051760;28;20481;-78
2022/09/30 03:21:51;;;;;;;5.88;3.90;;;7.90;96.50;;;;;;5051820;28;20095;-79
2022/09/30 03:24:38;;;;;;;6.70;3.80;;;7.90;96.60;;;;;;5051623;28;20059;-78
2022/09/30 03:27:48;;;;;;;6.83;3.90;;;7.90;96.60;;;;;;5051799;28;20083;-78
2022/09/30 03:30:17;;;;;;;8.87;4.10;;;7.80;96.60;;;;;;5015791;28;20025;-78
2022/09/30 03:32:57;;;;;;;7.93;4.43;;;7.80;96.50;;;;;;5051869;28;20017;-79
2022/09/30 03:35:45;;;;;;;5.80;3.87;;;7.80;96.50;;;;;;5051633;28;20075;-79
2022/09/30 03:38:40;;;;;;;5.20;3.43;;;7.80;96.50;;;;;;5051678;28;20098;-78
2022/09/30 03:41:31;;;;;;;7.10;3.60;;;7.70;96.50;;;;;;5051686;28;20025;-78
2022/09/30 03:44:10;;;;;;;7.23;3.90;;;7.70;96.60;;;;;;5015313;28;20112;-78
2022/09/30 03:46:42;;;;;;;6.87;3.80;;;7.60;96.60;;;;;;5051696;28;20025;-78
2022/09/30 03:49:13;;;;;;;7.20;4.00;;;7.60;96.60;;;;;;5051650;28;20028;-78
2022/09/30 03:51:40;;;;;;;6.20;3.60;;;7.60;96.70;;;;;;5051806;28;20120;-78
2022/09/30 03:54:09;;;;;;;5.93;3.83;;;7.50;96.70;;;;;;5035011;28;20115;-78
2022/09/30 03:56:36;;;;;;;7.97;4.03;;;7.60;96.70;;;;;;5034771;28;20056;-79
2022/09/30 03:59:02;;;;;;;7.60;4.30;;;7.50;96.80;;;;;;5039328;28;20040;-78
2022/09/30 04:01:28;;;;;;;7.57;3.93;;;7.60;96.90;;;;;;5055173;28;20492;-78
2022/09/30 04:03:53;;;;;;;7.90;3.80;;;7.60;96.90;;;;;;5038712;28;20017;-79
2022/09/30 04:06:24;;;;;;;5.63;3.40;;;7.60;97.00;;;;;;5022124;28;20449;-78
2022/09/30 04:08:49;;;;;;;7.53;4.27;;;7.60;97.00;;;;;;5038927;28;20033;-78
2022/09/30 04:11:16;;;;;;;7.93;4.93;;;7.50;97.00;;;;;;5038542;28;20132;-78
2022/09/30 04:13:42;;;;;;;6.23;4.00;;;7.60;97.30;;;;;;5055005;28;20029;-78
2022/09/30 04:16:08;;;;;;;10.37;4.80;;;7.60;97.10;;;;;;5055212;28;20029;-78
2022/09/30 04:18:37;;;;;;;6.63;4.33;;;7.70;97.20;;;;;;5042151;28;20466;-79
2022/09/30 04:21:08;;;;;;;7.97;4.83;;;7.60;97.20;;;;;;5018720;28;20036;-78
2022/09/30 04:23:38;;;;;;;8.47;5.10;;;7.60;97.30;;;;;;5018801;28;20120;-79
2022/09/30 04:26:06;;;;;;;10.60;5.67;;;7.60;97.30;;;;;;5018252;28;20040;-78
2022/09/30 04:28:32;;;;;;;10.27;5.73;;;7.50;97.40;;;;;;5018696;28;20068;-78
2022/09/30 04:30:59;;;;;;;8.53;5.13;;;7.40;97.40;;;;;;5018721;28;20087;-85
2022/09/30 04:33:25;;;;;;;7.43;5.13;;;7.50;97.50;;;;;;5018721;28;20465;-85
2022/09/30 04:35:58;;;;;;;10.20;5.10;;;7.50;97.60;;;;;;5001983;28;20048;-85
2022/09/30 04:38:25;;;;;;;9.97;5.70;;;7.50;97.70;;;;;;5018734;28;20477;-85
2022/09/30 04:40:51;;;;;;;10.60;5.37;;;7.50;97.70;;;;;;5018469;28;20135;-85
2022/09/30 04:43:18;;;;;;;14.73;6.70;;;7.50;97.70;;;;;;5002141;28;20172;-85
2022/09/30 04:45:47;;;;;;;9.30;5.23;;;7.50;97.80;;;;;;5001987;28;20493;-85
2022/09/30 04:48:14;;;;;;;9.97;5.43;;;7.50;97.90;;;;;;5001851;28;20032;-85
2022/09/30 04:50:41;;;;;;;9.53;5.63;;;7.50;97.90;;;;;;5018124;28;20390;-86
2022/09/30 04:53:07;;;;;;;11.97;6.30;;;7.50;98.00;;;;;;5001921;28;20105;-85
2022/09/30 04:55:33;;;;;;;9.57;6.20;;;7.50;98.00;;;;;;5017988;28;20032;-85
2022/09/30 04:57:59;;;;;;;12.43;6.50;;;7.40;98.20;;;;;;5001898;28;20045;-85
2022/09/30 05:00:24;;;;;;;10.07;6.70;;;7.40;98.00;;;;;;5002056;28;20026;-85
2022/09/30 05:02:50;;;;;;;10.63;6.20;;;7.40;98.00;;;;;;5018283;28;20030;-85
2022/09/30 05:05:16;;;;;;;12.03;6.03;;;7.30;98.00;;;;;;5001613;28;20128;-85
2022/09/30 05:07:42;;;;;;;10.53;6.00;;;7.40;98.00;;;;;;5001380;28;20436;-84
2022/09/30 05:10:10;;;;;;;10.33;5.77;;;7.30;98.00;;;;;;5001720;28;20041;-85
2022/09/30 05:12:36;;;;;;;10.27;5.70;;;7.40;98.00;;;;;;5035854;28;20029;-85
2022/09/30 05:15:03;;;;;;;9.93;5.57;;;7.30;98.00;;;;;;5017626;28;20029;-79
2022/09/30 05:17:30;;;;;;;8.77;5.97;;;7.30;98.00;;;;;;5035326;28;20025;-79
2022/09/30 05:19:55;;;;;;;11.53;6.53;;;7.30;98.00;;;;;;5001181;28;20124;-79
2022/09/30 05:22:23;;;;;;;10.07;6.53;;;7.30;98.00;;;;;;5001376;28;20563;-79
2022/09/30 05:24:51;;;;;;;9.43;6.00;;;7.20;98.10;;;;;;5017208;28;20111;-79
2022/09/30 05:27:18;;;;;;;9.60;5.90;;;7.20;98.10;;;;;;5017267;28;20028;-79
2022/09/30 05:29:43;;;;;;;10.03;5.67;;;7.20;98.20;;;;;;5017255;28;20024;-78
2022/09/30 05:32:09;;;;;;;15.87;6.20;;;7.10;98.30;;;;;;5000801;28;20029;-79
2022/09/30 05:34:37;;;;;;;12.70;6.30;;;7.20;98.40;;;;;;5000693;28;20401;-79
2022/09/30 05:37:04;;;;;;;12.40;6.77;;;7.30;98.50;;;;;;5020569;28;20032;-79
2022/09/30 05:39:29;;;;;;;12.27;6.40;;;7.20;98.50;;;;;;5036418;28;20033;-79
2022/09/30 05:41:56;;;;;;;12.53;6.13;;;7.20;98.80;;;;;;5020474;28;20025;-79
2022/09/30 05:44:22;;;;;;;11.43;6.63;;;7.30;98.60;;;;;;5008586;28;20120;-79
2022/09/30 05:46:48;;;;;;;11.13;6.23;;;7.20;98.60;;;;;;5036598;28;20120;-79
2022/09/30 05:49:13;;;;;;;14.90;6.50;;;7.20;98.60;;;;;;5047776;28;20041;-79
2022/09/30 05:51:39;;;;;;;9.97;6.27;;;7.10;98.60;;;;;;5043303;28;20058;-79
2022/09/30 05:54:05;;;;;;;10.67;6.13;;;7.20;98.70;;;;;;5014901;28;20033;-79
2022/09/30 05:56:30;;;;;;;9.30;5.67;;;7.10;98.70;;;;;;5016985;28;20057;-79
2022/09/30 05:58:56;;;;;;;8.97;6.23;;;7.20;98.70;;;;;;5023956;28;20036;-79
2022/09/30 06:01:22;;;;;;;11.30;6.27;;;7.20;98.70;;;;;;5019836;28;20061;-79
2022/09/30 06:03:48;;;;;;;15.50;6.33;;;7.10;98.70;;;;;;5052314;28;20435;-79
2022/09/30 06:06:14;;;;;;;9.77;7.03;;;7.20;98.80;;;;;;5016459;28;20021;-79
2022/09/30 06:08:40;;;;;;;10.10;6.07;;;7.10;98.80;;;;;;5019415;28;20080;-78
2022/09/30 06:11:24;;;;;;;10.03;6.63;;;7.20;98.90;;;;;;5035725;28;20037;-78
2022/09/30 06:13:50;;;;;;;;;;;7.20;99.00;;;;;;5001228;28;20033;-81
2022/09/30 06:16:17;;;;;;;10.47;6.80;;;7.20;99.00;;;;;;5025285;28;19962;-85
2022/09/30 06:18:46;;;;;;;10.10;7.13;;;7.20;98.90;;;;;;5035776;28;20021;-85
2022/09/30 06:21:14;;;;;;;16.03;7.10;;;7.20;98.90;;;;;;5035235;28;20033;-85
2022/09/30 06:23:40;;;;;;;13.00;8.50;;;7.20;99.00;;;;;;5035803;28;20028;-86
2022/09/30 06:26:08;;;;;;;13.00;8.77;;;7.20;99.00;;;;;;5036554;28;20025;-86
2022/09/30 06:28:34;;;;;;;11.83;7.83;;;7.40;99.20;;;;;;5017784;28;20029;-81
2022/09/30 06:31:01;;;;;;;12.77;7.87;;;7.20;99.20;;;;;;5016054;28;20079;-81
2022/09/30 06:33:27;;;;;;;12.00;8.10;;;7.30;99.40;;;;;;5049997;28;20033;-81
2022/09/30 06:35:53;;;;;;;11.90;8.00;;;7.30;99.40;;;;;;5036571;28;20025;-81
2022/09/30 06:38:21;;;;;;;10.77;7.97;;;7.40;99.50;;;;;;5035663;28;20067;-81
2022/09/30 06:40:49;;;;;;;13.27;8.70;;;7.40;99.60;;;;;;5036560;28;20021;-81
2022/09/30 06:43:15;;;;;;;13.30;8.97;;;7.50;99.70;;;;;;5003925;28;20112;-81
2022/09/30 06:45:41;;;;;;;14.90;9.33;;;7.50;99.80;;;;;;5002849;28;20077;-81
2022/09/30 06:48:08;;;;;;;17.03;11.63;;;7.50;99.90;;;;;;5019213;28;20116;-81
2022/09/30 06:50:34;;;;;;;18.60;12.20;;;7.70;99.90;;;;;;5053430;28;20388;-81
2022/09/30 06:53:01;;;;;;;20.73;13.63;;;7.60;99.90;;;;;;5053315;28;20120;-81
2022/09/30 06:55:28;;;;;;;21.23;14.63;;;7.70;99.90;;;;;;5035338;28;20029;-81
2022/09/30 06:57:55;;;;;;;21.47;14.43;;;7.80;99.90;;;;;;5035200;28;20052;-81
2022/09/30 07:00:21;;;;;;;19.27;13.33;;;7.90;99.90;;;;;;5035531;28;20021;-81
2022/09/30 07:02:50;;;;;;;23.47;15.50;;;7.80;99.90;;;;;;5019027;28;20032;-81
2022/09/30 07:05:16;;;;;;;20.57;14.23;;;8.00;99.90;;;;;;5019291;28;20120;-81
2022/09/30 07:07:42;;;;;;;23.47;16.23;;;8.00;99.90;;;;;;5018913;28;20039;-80
2022/09/30 07:10:09;;;;;;;24.37;17.70;;;8.00;99.90;;;;;;5035152;28;20017;-80
2022/09/30 07:12:35;;;;;;;27.53;18.30;;;8.10;99.90;;;;;;5035192;28;20024;-80
2022/09/30 07:15:01;;;;;;;26.27;18.23;;;8.10;99.90;;;;;;5035580;28;20412;-81
2022/09/30 07:17:27;;;;;;;25.90;19.07;;;8.10;99.90;;;;;;5018774;28;20032;-80
2022/09/30 07:19:53;;;;;;;26.70;19.93;;;8.20;99.90;;;;;;5018812;28;20025;-80
2022/09/30 07:22:28;;;;;;;32.13;21.33;;;8.30;99.90;;;;;;5035274;28;20020;-81
2022/09/30 07:24:58;;;;;;;29.77;20.27;;;8.30;99.90;;;;;;5019944;28;20500;-81
2022/09/30 07:27:26;;;;;;;34.03;22.03;;;8.40;99.90;;;;;;5035224;28;20013;-82
2022/09/30 07:29:52;;;;;;;31.53;20.23;;;8.50;99.90;;;;;;5035028;28;20120;-82
2022/09/30 07:32:18;;;;;;;30.37;22.27;;;8.40;99.90;;;;;;5024274;28;20389;-82
2022/09/30 07:34:44;;;;;;;30.57;21.33;;;8.60;99.90;;;;;;5002982;28;20491;-82
2022/09/30 07:37:13;;;;;;;28.57;20.43;;;8.60;99.90;;;;;;5019130;28;20014;-82
2022/09/30 07:39:40;;;;;;;30.40;22.00;;;8.70;99.90;;;;;;5029407;28;20040;-80
2022/09/30 07:42:06;;;;;;;29.10;22.50;;;8.70;99.90;;;;;;5044160;28;20388;-80
2022/09/30 07:44:32;;;;;;;27.40;20.37;;;8.80;99.90;;;;;;5021495;28;20031;-81
2022/09/30 07:46:59;;;;;;;31.57;22.40;;;8.80;99.90;;;;;;5022296;28;20025;-81
2022/09/30 07:49:25;;;;;;;31.27;21.83;;;8.90;99.90;;;;;;5038845;28;20023;-81
2022/09/30 07:51:56;;;;;;;29.53;21.40;;;9.00;99.90;;;;;;5022342;28;20467;-81
2022/09/30 07:54:25;;;;;;;28.57;21.30;;;9.10;99.90;;;;;;5039183;28;20031;-81
2022/09/30 07:56:51;;;;;;;30.00;22.50;;;9.10;99.90;;;;;;5038481;28;20077;-81
2022/09/30 07:59:19;;;;;;;37.50;26.23;;;9.20;99.90;;;;;;5038422;28;20512;-82
2022/09/30 08:01:45;;;;;;;31.57;24.87;;;9.40;99.90;;;;;;5038648;28;20028;-82
2022/09/30 08:04:12;;;;;;;34.23;25.70;;;9.40;99.90;;;;;;5038972;28;20035;-82
2022/09/30 08:06:47;;;;;;;35.73;26.13;;;9.40;99.90;;;;;;5038367;28;20025;-82
2022/09/30 08:09:14;;;;;;;32.23;25.23;;;9.50;99.90;;;;;;5022942;28;20032;-81
2022/09/30 08:11:41;;;;;;;33.10;26.17;;;9.60;99.90;;;;;;5018652;28;20025;-82
2022/09/30 08:14:12;;;;;;;30.27;22.87;;;9.70;99.90;;;;;;5035089;28;20036;-82
2022/09/30 08:16:38;;;;;;;32.00;24.13;;;9.70;99.90;;;;;;5035121;28;20061;-81
2022/09/30 08:19:04;;;;;;;32.13;24.07;;;9.80;99.90;;;;;;5049325;28;20087;-82
2022/09/30 08:21:29;;;;;;;31.63;24.00;;;9.80;99.90;;;;;;5038314;28;20128;-86
2022/09/30 08:23:56;;;;;;;30.13;24.33;;;9.90;99.90;;;;;;5031192;28;20116;-82
2022/09/30 08:26:24;;;;;;;31.03;24.20;;;10.00;99.90;;;;;;5018468;28;20120;-83
2022/09/30 08:28:50;;;;;;;28.03;22.10;;;10.10;99.90;;;;;;5035209;28;20079;-82
2022/09/30 08:31:21;;;;;;;27.20;22.23;;;10.20;99.90;;;;;;5018242;28;20033;-83
2022/09/30 08:33:47;;;;;;;32.50;22.93;;;10.30;99.90;;;;;;5022478;28;20037;-82
2022/09/30 08:36:18;;;;;;;29.27;23.20;;;10.30;99.90;;;;;;5037845;28;20496;-82
2022/09/30 08:38:44;;;;;;;27.53;22.70;;;10.40;99.90;;;;;;5037989;28;20017;-82
2022/09/30 08:41:38;;;;;;;28.17;21.97;;;10.50;99.90;;;;;;5037994;28;20021;-84
2022/09/30 08:44:23;;;;;;;27.27;21.92;;;10.60;99.90;;;;;;5029967;28;20036;-83
2022/09/30 08:47:33;;;;;;;25.83;20.63;;;10.70;99.90;;;;;;5034472;28;20083;-82
2022/09/30 08:50:23;;;;;;;23.70;19.23;;;10.80;99.90;;;;;;4990795;28;20065;-82
2022/09/30 08:52:53;;;;;;;24.13;19.57;;;10.90;99.90;;;;;;5034113;28;20017;-83
2022/09/30 08:55:25;;;;;;;24.35;18.20;;;11.00;99.90;;;;;;5034157;28;20049;-83
2022/09/30 08:57:56;;;;;;;25.27;19.02;;;11.10;99.90;;;;;;5035315;28;20145;-83
2022/09/30 09:00:23;;;;;;;22.35;18.27;;;11.20;99.80;;;;;;5034184;28;20030;-83
2022/09/30 09:02:58;;;;;;;26.88;19.40;;;11.30;99.70;;;;;;5034256;28;20389;-83
2022/09/30 09:05:51;;;;;;;24.42;19.33;;;11.40;99.60;;;;;;5034265;28;20035;-82
2022/09/30 09:08:38;;;;;;;24.85;17.42;;;11.50;99.40;;;;;;5034218;28;20120;-82
2022/09/30 09:11:27;;;;;;;21.70;17.38;;;11.60;99.50;;;;;;5033809;28;20030;-83
2022/09/30 09:14:11;;;;;;;20.58;15.45;;;11.80;99.10;;;;;;5034083;28;20095;-84
2022/09/30 09:16:57;;;;;;;18.70;15.43;;;11.80;98.90;;;;;;5033957;28;20389;-82
2022/09/30 09:19:28;;;;;;;22.42;17.98;;;12.00;98.70;;;;;;5033760;28;20033;-83
2022/09/30 09:21:58;;;;;;;21.55;15.65;;;12.00;98.40;;;;;;5033957;28;20029;-83
2022/09/30 09:24:26;;;;;;;21.27;16.35;;;12.20;98.10;;;;;;5035074;28;20020;-82
2022/09/30 09:26:53;;;;;;;21.10;16.52;;;12.20;98.00;;;;;;5034094;28;20461;-84
2022/09/30 09:29:31;;;;;;;18.60;15.55;;;12.40;97.80;;;;;;5052515;28;20036;-82
2022/09/30 09:32:00;;;;;;;18.38;15.18;;;12.40;97.40;;;;;;5037085;28;20111;-83
2022/09/30 09:34:29;;;;;;;19.85;16.73;;;12.50;97.30;;;;;;5037026;28;20036;-82
2022/09/30 09:37:18;;;;;;;22.30;17.00;;;12.60;97.10;;;;;;5036911;28;20032;-83
2022/09/30 09:40:01;;;;;;;19.50;15.00;;;12.70;96.80;;;;;;5036822;28;20106;-81
2022/09/30 09:43:18;;;;;;;20.50;15.95;;;12.80;96.70;;;;;;5036687;28;20075;-82
2022/09/30 09:45:43;;;;;;;15.77;13.07;;;13.00;96.50;;;;;;5015352;28;20056;-84
2022/09/30 09:48:12;;;;;;;17.50;13.38;;;13.20;96.30;;;;;;5036558;28;20029;-79
2022/09/30 09:51:05;;;;;;;15.98;12.98;;;13.50;96.30;;;;;;5036544;28;20081;-82
2022/09/30 09:53:56;;;;;;;16.52;11.15;;;13.80;96.10;;;;;;5036614;28;20072;-85
2022/09/30 09:56:27;;;;;;;14.90;11.45;;;14.30;95.80;;;;;;5032385;28;20460;-85
2022/09/30 09:59:13;;;;;;;12.95;9.30;;;14.80;95.40;;;;;;5033346;28;20037;-87
2022/09/30 10:01:49;;;;;;;12.25;8.30;;;15.40;94.80;;;;;;5034960;28;20389;-87
2022/09/30 10:04:23;;;;;;;12.48;8.30;;;16.10;94.30;;;;;;5035565;28;20044;-86
2022/09/30 10:06:54;;;;;;;9.18;7.25;;;16.80;93.70;;;;;;5033533;28;20047;-84
2022/09/30 10:09:38;;;;;;;11.60;7.15;;;17.60;93.30;;;;;;5034450;28;20121;-84
2022/09/30 10:12:06;;;;;;;8.30;5.55;;;18.30;91.70;;;;;;5033780;28;20068;-82
2022/09/30 10:14:35;;;;;;;8.30;5.53;;;19.20;91.40;;;;;;5033278;28;20041;-85
2022/09/30 10:17:03;;;;;;;6.28;4.35;;;20.00;89.50;;;;;;5034216;28;20492;-82
2022/09/30 10:19:32;;;;;;;8.10;5.15;;;20.60;85.80;;;;;;5032959;28;20054;-84
2022/09/30 10:22:07;;;;;;;6.82;4.70;;;21.10;82.90;;;;;;5033007;28;20052;-85
2022/09/30 10:24:35;;;;;;;7.97;4.45;;;21.80;79.80;;;;;;5033526;28;20076;-84
2022/09/30 10:27:01;;;;;;;6.43;4.18;;;22.40;76.60;;;;;;5033320;28;20114;-84
2022/09/30 10:29:30;;;;;;;5.88;2.53;;;23.00;73.50;;;;;;5032897;28;20515;-86
2022/09/30 10:31:59;;;;;;;5.47;3.42;;;23.60;71.20;;;;;;5032705;28;20435;-85
2022/09/30 10:34:33;;;;;;;4.90;3.03;;;24.10;67.20;;;;;;5033053;28;20104;-85
2022/09/30 10:37:01;;;;;;;;;;;24.60;65.00;;;;;;5034621;28;20025;-86
2022/09/30 10:39:42;;;;;;;3.65;2.63;;;25.00;63.30;;;;;;5033691;28;19913;-85
2022/09/30 10:42:22;;;;;;;6.10;2.97;;;25.40;61.60;;;;;;5033000;28;20029;-85
2022/09/30 10:45:17;;;;;;;4.57;2.05;;;25.80;58.70;;;;;;5013135;28;20474;-84
2022/09/30 10:47:47;;;;;;;6.45;3.38;;;26.10;56.60;;;;;;5013137;28;20084;-86
2022/09/30 10:50:16;;;;;;;5.15;2.83;;;26.20;54.10;;;;;;5014474;28;20057;-85
2022/09/30 10:52:56;;;;;;;5.45;2.58;;;26.30;53.80;;;;;;5014864;28;20026;-86
2022/09/30 10:55:29;;;;;;;4.65;2.33;;;26.60;53.20;;;;;;5032765;28;20065;-85
2022/09/30 10:58:00;;;;;;;6.90;2.30;;;26.90;52.50;;;;;;5032945;28;20465;-86
2022/09/30 11:00:34;;;;;;;4.50;2.15;;;27.20;51.60;;;;;;5032455;28;20021;-84
2022/09/30 11:03:12;;;;;;;6.07;2.67;;;27.10;49.90;;;;;;5032680;28;20030;-87
2022/09/30 11:05:41;;;;;;;5.53;2.35;;;27.00;48.30;;;;;;5033669;28;20025;-85
2022/09/30 11:08:25;;;;;;;4.70;1.95;;;27.00;49.10;;;;;;5032398;28;20068;-83
2022/09/30 11:11:13;;;;;;;4.05;1.83;;;27.30;48.40;;;;;;5032214;28;20048;-86
2022/09/30 11:13:42;;;;;;;5.15;2.10;;;27.40;47.20;;;;;;5032556;28;20053;-85
2022/09/30 11:16:08;;;;;;;3.95;2.13;;;27.40;46.90;;;;;;5032837;28;20037;-85
2022/09/30 11:18:55;;;;;;;4.15;1.90;;;27.50;46.60;;;;;;5033427;28;20477;-84
2022/09/30 11:21:24;;;;;;;2.92;1.88;;;27.60;46.80;;;;;;5032975;28;20485;-84
2022/09/30 11:23:59;;;;;;;4.72;2.33;;;27.70;46.70;;;;;;5033136;28;20041;-84
2022/09/30 11:26:31;;;;;;;4.70;3.00;;;27.90;45.40;;;;;;5032650;28;20049;-86
2022/09/30 11:29:19;;;;;;;4.93;2.83;;;27.90;44.60;;;;;;5033589;28;20030;-83
2022/09/30 11:32:07;;;;;;;5.32;2.83;;;27.90;44.30;;;;;;5024731;28;20094;-84
2022/09/30 11:34:47;;;;;;;4.53;2.97;;;28.00;44.40;;;;;;5032568;28;20390;-86
2022/09/30 11:37:27;;;;;;;4.28;2.80;;;28.20;44.00;;;;;;5032714;28;20013;-86
2022/09/30 11:40:06;;;;;;;3.45;2.67;;;28.20;43.40;;;;;;5033966;28;20476;-82
2022/09/30 11:42:55;;;;;;;4.45;3.03;;;28.20;43.20;;;;;;5033245;28;20037;-81
2022/09/30 11:45:37;;;;;;;3.70;2.88;;;28.00;43.10;;;;;;5030965;28;20040;-84
2022/09/30 11:48:34;;;;;;;4.78;2.60;;;28.00;43.00;;;;;;5031588;28;20029;-84
2022/09/30 11:51:22;;;;;;;4.93;3.05;;;27.90;43.30;;;;;;5032150;28;20021;-81
2022/09/30 11:54:21;;;;;;;4.45;3.08;;;28.00;43.20;;;;;;5031566;28;20477;-83
2022/09/30 11:57:05;;;;;;;2.97;2.05;;;28.10;43.00;;;;;;5031805;28;20045;-84
2022/09/30 11:59:57;;;;;;;3.45;2.20;;;28.20;42.50;;;;;;5031323;28;20029;-83
2022/09/30 12:02:46;;;;;;;3.50;2.05;;;28.40;42.10;;;;;;5041566;28;20076;-82
2022/09/30 12:05:32;;;;;;;4.47;2.33;;;28.70;42.10;;;;;;5031656;28;20056;-83
2022/09/30 12:08:20;;;;;;;3.97;3.15;;;28.80;41.90;;;;;;5031504;28;20375;-84
2022/09/30 12:11:03;;;;;;;4.07;2.65;;;28.50;41.30;;;;;;5031609;28;20029;-84
2022/09/30 12:13:38;;;;;;;4.45;2.85;;;28.00;41.40;;;;;;5031567;28;20022;-83
2022/09/30 12:16:15;;;;;;;3.63;2.15;;;27.50;41.70;;;;;;5031484;28;20115;-83
2022/09/30 12:18:47;;;;;;;3.90;1.70;;;27.30;42.70;;;;;;5033217;28;20034;-83
2022/09/30 12:21:25;;;;;;;3.03;1.23;;;27.40;42.80;;;;;;5035460;28;20035;-78
2022/09/30 12:24:09;;;;;;;2.30;1.35;;;27.70;42.70;;;;;;5035238;28;20060;-83
2022/09/30 12:26:39;;;;;;;2.50;1.30;;;27.70;42.50;;;;;;5027016;28;20022;-85
2022/09/30 12:32:07;;;;;;;2.20;1.10;;;28.00;41.80;;;;;;5024994;28;20075;-82
2022/09/30 12:34:53;;;;;;;4.00;1.00;;;28.10;42.20;;;;;;5036260;28;20022;-81
2022/09/30 12:37:41;;;;;;;2.53;1.15;;;28.40;42.50;;;;;;5004493;28;20041;-84
2022/09/30 12:40:28;;;;;;;2.53;0.85;;;28.40;41.50;;;;;;5021729;28;20053;-86
2022/09/30 12:43:09;;;;;;;2.97;1.00;;;28.20;42.00;;;;;;5014598;28;20022;-84
2022/09/30 12:45:56;;;;;;;1.83;0.70;;;28.50;41.60;;;;;;5050480;28;20104;-85
2022/09/30 12:48:54;;;;;;;3.30;0.80;;;28.50;40.90;;;;;;5014697;28;20037;-84
2022/09/30 12:51:36;;;;;;;1.60;0.80;;;28.20;40.80;;;;;;5006595;28;20029;-86
2022/09/30 12:54:31;;;;;;;1.92;0.70;;;27.90;41.50;;;;;;5014910;28;20015;-85
2022/09/30 12:57:02;;;;;;;1.30;0.60;;;28.20;41.80;;;;;;5010809;28;20108;-82
2022/09/30 12:59:31;;;;;;;2.20;0.80;;;28.50;41.40;;;;;;4996768;28;20022;-84
2022/09/30 13:01:59;;;;;;;1.55;0.57;;;28.20;40.60;;;;;;4996841;28;20025;-83
2022/09/30 13:04:35;;;;;;;1.13;0.60;;;28.00;41.10;;;;;;5011188;28;20026;-84
2022/09/30 13:07:03;;;;;;;1.77;0.85;;;28.00;41.20;;;;;;5011497;28;20502;-82
2022/09/30 13:09:54;;;;;;;2.55;0.90;;;28.30;41.20;;;;;;5011554;28;20084;-84
2022/09/30 13:12:46;;;;;;;1.90;0.80;;;28.60;40.40;;;;;;5026459;28;20116;-83
2022/09/30 13:15:28;;;;;;;3.58;0.50;;;28.60;39.90;;;;;;5030619;28;20029;-84
2022/09/30 13:17:54;;;;;;;0.85;0.50;;;29.10;40.50;;;;;;5014130;28;20068;-84
2022/09/30 13:20:57;;;;;;;1.33;0.50;;;29.40;40.50;;;;;;5014297;28;20053;-84
2022/09/30 13:23:43;;;;;;;4.90;0.67;;;30.00;39.80;;;;;;5014175;28;20395;-84
2022/09/30 13:26:45;;;;;;;2.33;0.63;;;29.80;38.40;;;;;;5030506;28;20277;-84